createdAt,value
2023-02-20T00:02:04.761Z,2.22
2023-02-20T00:04:32.822Z,2.05
2023-02-20T00:07:02.208Z,1.80
2023-02-20T00:09:30.223Z,2.22
2023-02-20T00:11:58.181Z,1.63
2023-02-20T00:14:26.196Z,1.80
2023-02-20T00:16:54.172Z,1.90
2023-02-20T00:19:28.933Z,1.58
2023-02-20T00:21:56.928Z,2.10
2023-02-20T00:24:26.250Z,1.83
2023-02-20T00:26:56.056Z,1.98
2023-02-20T00:29:25.129Z,1.73
2023-02-20T00:31:54.589Z,2.22
2023-02-20T00:34:23.290Z,1.90
2023-02-20T00:36:52.216Z,1.90
2023-02-20T00:39:20.274Z,1.63
2023-02-20T00:41:49.844Z,2.03
2023-02-20T00:44:18.290Z,2.17
2023-02-20T00:46:46.462Z,1.92
2023-02-20T00:49:15.852Z,1.95
2023-02-20T00:51:43.829Z,1.90
2023-02-20T00:54:11.778Z,1.88
2023-02-20T00:56:39.890Z,1.77
2023-02-20T00:59:09.317Z,2.08
2023-02-20T01:01:37.557Z,1.80
2023-02-20T01:04:05.870Z,2.00
2023-02-20T01:06:33.863Z,1.65
2023-02-20T01:09:01.887Z,2.28
2023-02-20T01:11:29.864Z,1.77
2023-02-20T01:13:57.848Z,2.90
2023-02-20T01:16:27.389Z,2.05
2023-02-20T01:18:55.631Z,2.45
2023-02-20T01:21:23.697Z,2.10
2023-02-20T01:23:51.678Z,1.63
2023-02-20T01:26:19.755Z,1.90
2023-02-20T01:28:49.463Z,1.60
2023-02-20T01:31:17.680Z,1.65
2023-02-20T01:33:47.076Z,1.48
2023-02-20T01:36:15.420Z,2.20
2023-02-20T01:38:44.741Z,2.10
2023-02-20T01:41:13.208Z,2.38
2023-02-20T01:43:41.223Z,2.70
2023-02-20T01:46:44.958Z,3.15
2023-02-20T01:49:20.377Z,2.50
2023-02-20T01:51:52.317Z,2.20
2023-02-20T01:54:23.358Z,2.47
2023-02-20T01:56:53.426Z,1.90
2023-02-20T01:59:22.914Z,1.73
2023-02-20T02:01:51.582Z,1.95
2023-02-20T02:04:21.660Z,1.80
2023-02-20T02:06:53.294Z,2.30
2023-02-20T02:09:38.094Z,1.98
2023-02-20T02:12:09.856Z,1.83
2023-02-20T02:14:45.245Z,1.95
2023-02-20T02:17:35.639Z,1.90
2023-02-20T02:20:30.192Z,2.07
2023-02-20T02:23:36.620Z,1.80
2023-02-20T02:26:26.054Z,2.20
2023-02-20T02:29:27.805Z,2.10
2023-02-20T02:32:33.239Z,2.13
2023-02-20T02:35:35.098Z,1.83
2023-02-20T02:38:16.128Z,1.77
2023-02-20T02:40:52.720Z,1.93
2023-02-20T02:43:28.686Z,2.40
2023-02-20T02:45:58.652Z,2.07
2023-02-20T02:48:32.358Z,1.97
2023-02-20T02:51:06.434Z,1.90
2023-02-20T02:54:05.718Z,2.10
2023-02-20T02:56:35.868Z,1.83
2023-02-20T02:59:05.757Z,1.70
2023-02-20T03:01:36.485Z,2.30
2023-02-20T03:04:07.280Z,2.00
2023-02-20T03:06:38.503Z,2.00
2023-02-20T03:09:12.012Z,2.20
2023-02-20T03:11:41.649Z,2.03
2023-02-20T03:14:31.620Z,1.80
2023-02-20T03:17:11.965Z,1.60
2023-02-20T03:19:43.205Z,1.90
2023-02-20T03:22:17.739Z,1.63
2023-02-20T03:24:56.913Z,1.70
2023-02-20T03:27:30.516Z,2.07
2023-02-20T03:30:00.788Z,1.77
2023-02-20T03:32:49.207Z,2.00
2023-02-20T03:35:36.330Z,1.73
2023-02-20T03:38:25.352Z,2.03
2023-02-20T03:41:14.488Z,1.80
2023-02-20T03:43:46.210Z,1.63
2023-02-20T03:46:19.430Z,2.00
2023-02-20T03:48:52.996Z,1.90
2023-02-20T03:51:21.252Z,2.23
2023-02-20T03:53:49.589Z,1.93
2023-02-20T03:56:24.954Z,2.07
2023-02-20T03:58:59.213Z,1.90
2023-02-20T04:01:28.885Z,2.10
2023-02-20T04:03:59.076Z,2.07
2023-02-20T04:06:35.359Z,1.80
2023-02-20T04:09:06.945Z,1.63
2023-02-20T04:11:40.197Z,2.00
2023-02-20T04:14:11.034Z,2.30
2023-02-20T04:16:44.861Z,1.87
2023-02-20T04:19:13.095Z,1.80
2023-02-20T04:21:44.358Z,1.83
2023-02-20T04:24:16.749Z,2.13
2023-02-20T04:26:46.623Z,2.07
2023-02-20T04:29:14.882Z,2.03
2023-02-20T04:31:43.002Z,1.80
2023-02-20T04:34:11.003Z,2.23
2023-02-20T04:36:39.214Z,2.20
2023-02-20T04:39:07.260Z,2.07
2023-02-20T04:41:35.333Z,1.87
2023-02-20T04:44:22.474Z,2.40
2023-02-20T04:46:50.447Z,2.47
2023-02-20T04:49:18.412Z,1.77
2023-02-20T04:51:46.390Z,2.20
2023-02-20T04:54:14.426Z,2.03
2023-02-20T04:56:42.413Z,2.77
2023-02-20T04:59:11.918Z,2.20
2023-02-20T05:01:39.980Z,1.90
2023-02-20T05:04:07.985Z,2.00
2023-02-20T05:06:41.967Z,2.40
2023-02-20T05:09:10.964Z,1.90
2023-02-20T05:11:39.395Z,2.20
2023-02-20T05:14:07.812Z,1.50
2023-02-20T05:16:39.110Z,2.10
2023-02-20T05:19:07.492Z,1.70
2023-02-20T05:21:53.676Z,1.93
2023-02-20T05:24:22.540Z,2.00
2023-02-20T05:26:50.493Z,2.23
2023-02-20T05:29:18.482Z,2.00
2023-02-20T05:31:48.096Z,2.10
2023-02-20T05:34:16.389Z,2.00
2023-02-20T05:36:44.372Z,1.77
2023-02-20T05:39:12.435Z,2.33
2023-02-20T05:41:40.404Z,2.37
2023-02-20T05:44:08.403Z,2.27
2023-02-20T05:46:41.504Z,2.53
2023-02-20T05:49:11.492Z,2.50
2023-02-20T05:51:39.768Z,2.10
2023-02-20T05:54:07.809Z,2.20
2023-02-20T05:56:35.868Z,2.33
2023-02-20T05:59:03.839Z,1.97
2023-02-20T06:01:33.637Z,2.10
2023-02-20T06:04:02.323Z,2.33
2023-02-20T06:06:35.296Z,2.43
2023-02-20T06:09:03.774Z,2.60
2023-02-20T06:11:32.234Z,2.80
2023-02-20T06:14:00.332Z,2.73
2023-02-20T06:16:30.421Z,3.93
2023-02-20T06:19:00.158Z,2.87
2023-02-20T06:21:28.396Z,2.57
2023-02-20T06:23:57.724Z,2.30
2023-02-20T06:26:25.760Z,2.43
2023-02-20T06:28:54.454Z,2.70
2023-02-20T06:31:24.478Z,2.50
2023-02-20T06:33:53.240Z,2.30
2023-02-20T06:36:23.672Z,3.07
2023-02-20T06:38:52.096Z,2.47
2023-02-20T06:41:21.719Z,2.23
2023-02-20T06:43:49.831Z,2.10
2023-02-20T06:46:17.952Z,2.77
2023-02-20T06:48:46.991Z,3.20
2023-02-20T06:51:17.660Z,3.07
2023-02-20T06:53:46.509Z,2.60
2023-02-20T06:56:20.181Z,2.57
2023-02-20T06:58:51.198Z,2.53
2023-02-20T07:01:23.970Z,2.93
2023-02-20T07:03:53.545Z,2.53
2023-02-20T07:06:22.354Z,2.80
2023-02-20T07:08:50.917Z,2.20
2023-02-20T07:11:29.909Z,2.20
2023-02-20T07:13:59.278Z,2.63
2023-02-20T07:16:27.515Z,2.40
2023-02-20T07:18:55.853Z,2.70
2023-02-20T07:21:24.132Z,2.53
2023-02-20T07:23:53.446Z,2.80
2023-02-20T07:26:23.812Z,2.10
2023-02-20T07:28:54.137Z,2.33
2023-02-20T07:31:24.309Z,2.40
2023-02-20T07:33:52.707Z,2.20
2023-02-20T07:36:21.079Z,3.03
2023-02-20T07:38:58.276Z,2.77
2023-02-20T07:41:29.502Z,2.87
2023-02-20T07:43:57.506Z,3.20
2023-02-20T07:46:27.017Z,2.67
2023-02-20T07:48:55.029Z,3.57
2023-02-20T07:51:29.842Z,2.30
2023-02-20T07:53:57.805Z,2.63
2023-02-20T07:56:26.243Z,2.60
2023-02-20T07:58:54.274Z,2.67
2023-02-20T08:01:22.655Z,2.20
2023-02-20T08:03:52.144Z,2.10
2023-02-20T08:06:21.116Z,2.40
2023-02-20T08:08:50.403Z,1.97
2023-02-20T08:11:18.895Z,2.85
2023-02-20T08:13:47.712Z,2.50
2023-02-20T08:16:16.431Z,3.03
2023-02-20T08:18:44.891Z,2.38
2023-02-20T08:21:14.465Z,3.17
2023-02-20T08:23:43.085Z,2.08
2023-02-20T08:26:11.843Z,2.58
2023-02-20T08:28:40.139Z,2.25
2023-02-20T08:31:08.221Z,2.08
2023-02-20T08:33:37.778Z,2.70
2023-02-20T08:36:07.136Z,2.72
2023-02-20T08:38:37.931Z,2.30
2023-02-20T08:41:07.736Z,2.78
2023-02-20T08:43:36.218Z,2.28
2023-02-20T08:46:05.773Z,2.67
2023-02-20T08:48:34.180Z,2.83
2023-02-20T08:51:02.456Z,2.45
2023-02-20T08:53:30.490Z,2.70
2023-02-20T08:56:00.018Z,2.47
2023-02-20T08:58:28.146Z,2.60
2023-02-20T09:00:56.566Z,2.60
2023-02-20T09:03:25.010Z,2.58
2023-02-20T09:05:52.993Z,2.33
2023-02-20T09:08:20.958Z,2.53
2023-02-20T09:10:49.360Z,2.45
2023-02-20T09:13:18.854Z,2.60
2023-02-20T09:15:46.817Z,2.28
2023-02-20T09:18:15.790Z,2.80
2023-02-20T09:20:44.574Z,2.13
2023-02-20T09:23:12.754Z,2.25
2023-02-20T09:25:40.742Z,2.55
2023-02-20T09:28:09.161Z,2.33
2023-02-20T09:30:38.562Z,2.40
2023-02-20T09:33:06.599Z,2.00
2023-02-20T09:35:34.572Z,2.15
2023-02-20T09:38:02.847Z,2.45
2023-02-20T09:40:32.196Z,2.33
2023-02-20T09:43:18.981Z,2.33
2023-02-20T09:45:57.420Z,2.13
2023-02-20T09:48:41.289Z,2.67
2023-02-20T09:51:15.231Z,2.22
2023-02-20T09:53:51.939Z,2.13
2023-02-20T09:56:23.037Z,2.30
2023-02-20T09:58:59.572Z,2.97
2023-02-20T10:01:30.562Z,2.28
2023-02-20T10:04:01.663Z,2.50
2023-02-20T10:06:31.617Z,3.08
2023-02-20T10:09:00.880Z,2.72
2023-02-20T10:11:47.521Z,2.80
2023-02-20T10:14:35.290Z,2.70
2023-02-20T10:17:14.627Z,2.67
2023-02-20T10:19:50.769Z,2.90
2023-02-20T10:22:23.157Z,2.40
2023-02-20T10:25:03.625Z,2.53
2023-02-20T10:27:38.212Z,2.38
2023-02-20T10:30:10.290Z,2.92
2023-02-20T10:32:44.555Z,2.95
2023-02-20T10:35:17.245Z,2.33
2023-02-20T10:37:50.303Z,2.50
2023-02-20T10:40:24.969Z,2.08
2023-02-20T10:43:03.233Z,2.38
2023-02-20T10:45:43.144Z,3.17
2023-02-20T10:48:17.090Z,2.13
2023-02-20T10:50:50.329Z,2.40
2023-02-20T10:53:34.874Z,2.38
2023-02-20T10:56:10.229Z,2.70
2023-02-20T10:58:44.380Z,2.17
2023-02-20T11:01:26.019Z,2.35
2023-02-20T11:04:04.832Z,2.60
2023-02-20T11:06:37.920Z,2.67
2023-02-20T11:09:05.961Z,2.55
2023-02-20T11:11:40.058Z,2.85
2023-02-20T11:14:13.836Z,2.63
2023-02-20T11:16:47.268Z,2.72
2023-02-20T11:19:23.030Z,2.70
2023-02-20T11:21:52.656Z,2.22
2023-02-20T11:24:27.153Z,2.40
2023-02-20T11:26:59.029Z,2.70
2023-02-20T11:29:31.402Z,2.75
2023-02-20T11:32:18.975Z,2.58
2023-02-20T11:34:48.431Z,2.70
2023-02-20T11:37:17.874Z,3.05
2023-02-20T11:39:48.250Z,2.80
2023-02-20T11:42:19.793Z,2.95
2023-02-20T11:45:08.136Z,2.53
2023-02-20T11:47:36.152Z,3.28
2023-02-20T11:50:19.943Z,2.22
2023-02-20T11:53:04.894Z,2.90
2023-02-20T11:55:33.013Z,2.70
2023-02-20T11:58:01.054Z,2.67
2023-02-20T12:00:31.238Z,2.40
2023-02-20T12:03:14.074Z,3.17
2023-02-20T12:05:45.844Z,2.90
2023-02-20T12:08:38.109Z,2.38
2023-02-20T12:11:09.555Z,2.80
2023-02-20T12:13:40.023Z,2.65
2023-02-20T12:16:28.432Z,2.53
2023-02-20T12:19:03.387Z,2.78
2023-02-20T12:21:49.401Z,2.80
2023-02-20T12:24:39.898Z,2.50
2023-02-20T12:27:47.241Z,2.75
2023-02-20T12:30:27.531Z,2.53
2023-02-20T12:33:15.755Z,2.58
2023-02-20T12:35:56.104Z,2.50
2023-02-20T12:38:37.990Z,2.35
2023-02-20T12:41:26.472Z,2.40
2023-02-20T12:44:17.915Z,2.35
2023-02-20T12:46:55.642Z,2.20
2023-02-20T12:50:03.358Z,2.22
2023-02-20T12:52:50.843Z,2.38
2023-02-20T12:55:25.356Z,2.30
2023-02-20T12:58:04.916Z,2.92
2023-02-20T13:00:37.451Z,2.28
2023-02-20T13:03:12.076Z,2.33
2023-02-20T13:05:43.586Z,2.00
2023-02-20T13:08:16.893Z,2.30
2023-02-20T13:10:53.646Z,2.13
2023-02-20T13:13:23.407Z,2.33
2023-02-20T13:15:59.707Z,2.42
2023-02-20T13:18:35.752Z,2.50
2023-02-20T13:21:07.098Z,2.38
2023-02-20T13:23:37.160Z,2.28
2023-02-20T13:26:49.536Z,2.47
2023-02-20T13:29:22.606Z,2.08
2023-02-20T13:31:52.874Z,2.20
2023-02-20T13:34:48.241Z,2.00
2023-02-20T13:37:54.727Z,2.03
2023-02-20T13:40:43.392Z,2.58
2023-02-20T13:43:37.034Z,2.38
2023-02-20T13:46:25.617Z,2.58
2023-02-20T13:48:56.232Z,2.30
2023-02-20T13:51:38.136Z,3.10
2023-02-20T13:54:37.979Z,2.83
2023-02-20T13:57:17.659Z,2.50
2023-02-20T13:59:50.220Z,2.92
2023-02-20T14:02:24.113Z,3.38
2023-02-20T14:04:57.064Z,2.92
2023-02-20T14:07:33.353Z,3.05
2023-02-20T14:10:02.871Z,2.88
2023-02-20T14:12:31.019Z,3.00
2023-02-20T14:15:03.893Z,3.35
2023-02-20T14:17:32.976Z,3.13
2023-02-20T14:20:14.032Z,3.25
2023-02-20T14:22:42.726Z,3.15
2023-02-20T14:25:25.246Z,3.72
2023-02-20T14:27:53.546Z,3.90
2023-02-20T14:30:26.231Z,3.85
2023-02-20T14:32:56.552Z,3.80
2023-02-20T14:35:57.874Z,4.03
2023-02-20T14:38:47.138Z,3.33
2023-02-20T14:41:19.632Z,3.97
2023-02-20T14:43:56.458Z,3.70
2023-02-20T14:46:28.586Z,3.70
2023-02-20T14:49:07.906Z,3.88
2023-02-20T14:51:36.086Z,4.43
2023-02-20T14:54:18.992Z,3.85
2023-02-20T14:56:48.006Z,4.15
2023-02-20T14:59:25.545Z,3.88
2023-02-20T15:01:58.680Z,3.65
2023-02-20T15:04:27.755Z,3.70
2023-02-20T15:07:02.537Z,4.18
2023-02-20T15:09:38.459Z,3.78
2023-02-20T15:12:09.474Z,4.07
2023-02-20T15:14:44.404Z,3.67
2023-02-20T15:17:24.620Z,3.50
2023-02-20T15:19:53.152Z,3.55
2023-02-20T15:22:32.709Z,3.97
2023-02-20T15:25:25.925Z,4.00
2023-02-20T15:28:08.789Z,4.15
2023-02-20T15:30:38.035Z,4.15
2023-02-20T15:33:11.153Z,3.72
2023-02-20T15:35:39.432Z,3.88
2023-02-20T15:38:10.274Z,4.10
2023-02-20T15:40:38.316Z,3.70
2023-02-20T15:43:23.948Z,4.00
2023-02-20T15:45:59.883Z,4.75
2023-02-20T15:48:30.599Z,3.30
2023-02-20T15:50:58.574Z,3.80
2023-02-20T15:53:28.776Z,4.07
2023-02-20T15:55:59.834Z,4.13
2023-02-20T15:58:34.291Z,3.60
2023-02-20T16:01:07.356Z,4.22
2023-02-20T16:03:50.463Z,3.75
2023-02-20T16:06:19.732Z,3.97
2023-02-20T16:08:48.907Z,3.63
2023-02-20T16:11:18.028Z,4.20
2023-02-20T16:13:49.809Z,3.70
2023-02-20T16:16:24.786Z,3.35
2023-02-20T16:18:55.560Z,3.67
2023-02-20T16:21:25.098Z,4.65
2023-02-20T16:23:53.956Z,3.97
2023-02-20T16:26:24.791Z,3.55
2023-02-20T16:28:57.376Z,3.65
2023-02-20T16:31:49.977Z,3.47
2023-02-20T16:34:22.042Z,4.65
2023-02-20T16:36:50.947Z,4.07
2023-02-20T16:39:26.208Z,4.80
2023-02-20T16:41:55.435Z,4.72
2023-02-20T16:44:29.326Z,4.38
2023-02-20T16:46:57.568Z,4.90
2023-02-20T16:49:27.811Z,6.60
2023-02-20T16:52:01.446Z,7.13
2023-02-20T16:54:29.545Z,6.05
2023-02-20T16:56:58.438Z,5.43
2023-02-20T16:59:26.408Z,5.78
2023-02-20T17:01:56.735Z,7.18
2023-02-20T17:04:26.224Z,6.13
2023-02-20T17:06:54.189Z,6.15
2023-02-20T17:09:24.735Z,6.15
2023-02-20T17:12:24.206Z,5.25
2023-02-20T17:14:53.880Z,5.85
2023-02-20T17:17:22.607Z,5.00
2023-02-20T17:19:53.270Z,5.18
2023-02-20T17:22:22.706Z,4.93
2023-02-20T17:24:51.132Z,5.93
2023-02-20T17:27:19.494Z,4.70
2023-02-20T17:29:48.671Z,4.50
2023-02-20T17:32:19.766Z,4.07
2023-02-20T17:34:48.346Z,4.20
2023-02-20T17:37:17.909Z,4.97
2023-02-20T17:39:46.639Z,7.68
2023-02-20T17:42:14.919Z,10.43
2023-02-20T17:44:42.920Z,6.78
2023-02-20T17:47:12.818Z,7.15
2023-02-20T17:49:41.729Z,7.45
2023-02-20T17:52:25.041Z,8.00
2023-02-20T17:54:55.294Z,5.40
2023-02-20T17:57:24.386Z,5.05
2023-02-20T17:59:55.821Z,6.43
2023-02-20T18:02:23.986Z,5.45
2023-02-20T18:04:52.040Z,6.97
2023-02-20T18:07:20.108Z,6.38
2023-02-20T18:09:49.930Z,6.28
2023-02-20T18:12:18.058Z,5.63
2023-02-20T18:14:46.643Z,5.45
2023-02-20T18:17:14.924Z,4.28
2023-02-20T18:19:43.048Z,4.20
2023-02-20T18:22:11.034Z,3.80
2023-02-20T18:24:39.158Z,3.13
2023-02-20T18:27:10.203Z,3.63
2023-02-20T18:29:39.952Z,3.45
2023-02-20T18:32:09.137Z,3.60
2023-02-20T18:34:37.167Z,3.53
2023-02-20T18:37:05.228Z,3.00
2023-02-20T18:39:33.215Z,3.27
2023-02-20T18:42:01.208Z,3.40
2023-02-20T18:44:30.596Z,3.50
2023-02-20T18:47:01.604Z,17.87
2023-02-20T18:49:29.721Z,11.07
2023-02-20T18:51:57.818Z,6.17
2023-02-20T18:54:30.082Z,3.07
2023-02-20T18:56:58.129Z,2.57
2023-02-20T18:59:27.400Z,2.70
2023-02-20T19:01:57.207Z,2.83
2023-02-20T19:04:26.111Z,2.83
2023-02-20T19:06:54.296Z,3.20
2023-02-20T19:09:24.255Z,2.83
2023-02-20T19:11:54.186Z,2.77
2023-02-20T19:14:23.578Z,3.20
2023-02-20T19:16:52.362Z,3.40
2023-02-20T19:19:24.650Z,2.77
2023-02-20T19:21:53.735Z,2.80
2023-02-20T19:24:22.476Z,2.93
2023-02-20T19:26:51.507Z,3.40
2023-02-20T19:29:19.614Z,3.80
2023-02-20T19:31:48.017Z,5.83
2023-02-20T19:34:16.449Z,3.83
2023-02-20T19:36:46.044Z,3.13
2023-02-20T19:39:15.488Z,3.33
2023-02-20T19:41:43.505Z,2.87
2023-02-20T19:44:15.994Z,4.13
2023-02-20T19:46:44.524Z,7.03
2023-02-20T19:49:13.744Z,5.70
2023-02-20T19:51:49.481Z,2.63
2023-02-20T19:54:21.783Z,3.80
2023-02-20T19:56:51.093Z,3.40
2023-02-20T19:59:19.788Z,3.27
2023-02-20T20:01:58.562Z,3.57
2023-02-20T20:04:28.865Z,2.97
2023-02-20T20:06:58.453Z,3.30
2023-02-20T20:09:36.518Z,3.13
2023-02-20T20:12:27.964Z,3.80
2023-02-20T20:14:56.841Z,3.07
2023-02-20T20:17:25.460Z,3.20
2023-02-20T20:19:58.735Z,2.73
2023-02-20T20:22:29.082Z,2.27
2023-02-20T20:24:57.055Z,4.70
2023-02-20T20:27:25.330Z,5.73
2023-02-20T20:29:53.678Z,4.13
2023-02-20T20:32:22.516Z,3.80
2023-02-20T20:34:53.214Z,3.10
2023-02-20T20:37:23.788Z,3.93
2023-02-20T20:39:53.452Z,4.70
2023-02-20T20:42:23.753Z,4.53
2023-02-20T20:44:52.029Z,4.07
2023-02-20T20:47:20.750Z,3.13
2023-02-20T20:49:55.848Z,3.07
2023-02-20T20:52:24.840Z,3.27
2023-02-20T20:54:57.432Z,2.73
2023-02-20T20:57:28.337Z,2.23
2023-02-20T20:59:58.473Z,2.90
2023-02-20T21:02:26.516Z,2.33
2023-02-20T21:05:09.166Z,2.73
2023-02-20T21:07:38.506Z,2.77
2023-02-20T21:10:09.192Z,3.07
2023-02-20T21:12:37.174Z,3.13
2023-02-20T21:15:05.631Z,3.13
2023-02-20T21:17:34.794Z,3.17
2023-02-20T21:20:04.720Z,3.07
2023-02-20T21:22:32.845Z,3.00
2023-02-20T21:25:01.057Z,3.80
2023-02-20T21:27:31.452Z,3.93
2023-02-20T21:29:59.438Z,3.10
2023-02-20T21:32:28.235Z,2.97
2023-02-20T21:34:58.653Z,3.53
2023-02-20T21:37:27.718Z,3.23
2023-02-20T21:39:55.811Z,3.17
2023-02-20T21:42:41.186Z,2.80
2023-02-20T21:45:11.880Z,3.20
2023-02-20T21:47:40.091Z,3.10
2023-02-20T21:50:09.087Z,3.00
2023-02-20T21:52:37.877Z,3.07
2023-02-20T21:55:09.184Z,3.40
2023-02-20T21:57:37.320Z,3.10
2023-02-20T22:00:06.136Z,3.03
2023-02-20T22:02:34.910Z,3.50
2023-02-20T22:05:01.843Z,3.23
2023-02-20T22:07:47.208Z,3.30
2023-02-20T22:10:32.704Z,3.30
2023-02-20T22:13:18.384Z,3.30
2023-02-20T22:16:03.751Z,3.53
2023-02-20T22:18:50.756Z,3.27
2023-02-20T22:21:37.144Z,3.73
2023-02-20T22:24:33.821Z,3.47
2023-02-20T22:27:24.578Z,3.90
2023-02-20T22:30:10.334Z,3.13
2023-02-20T22:32:56.177Z,4.20
2023-02-20T22:35:43.095Z,3.87
2023-02-20T22:38:28.718Z,3.87
2023-02-20T22:41:14.665Z,3.87
2023-02-20T22:44:00.337Z,3.77
2023-02-20T22:46:46.115Z,3.53
2023-02-20T22:49:31.593Z,3.40
2023-02-20T22:52:18.437Z,3.40
2023-02-20T22:55:05.895Z,3.47
2023-02-20T22:57:51.680Z,3.17
2023-02-20T23:00:37.416Z,3.77
2023-02-20T23:03:22.826Z,4.20
2023-02-20T23:06:17.467Z,3.93
2023-02-20T23:09:08.437Z,4.40
2023-02-20T23:11:54.967Z,3.53
2023-02-20T23:14:40.943Z,4.20
2023-02-20T23:17:35.771Z,4.77
2023-02-20T23:20:24.736Z,3.83
2023-02-20T23:23:11.015Z,5.13
2023-02-20T23:25:57.695Z,4.07
2023-02-20T23:28:43.336Z,4.27
2023-02-20T23:31:28.943Z,3.70
2023-02-20T23:34:14.257Z,4.40
2023-02-20T23:37:04.529Z,4.27
2023-02-20T23:39:49.989Z,3.77
2023-02-20T23:42:38.215Z,4.63
2023-02-20T23:45:25.856Z,4.40
2023-02-20T23:48:11.145Z,4.30
2023-02-20T23:50:56.795Z,4.40
2023-02-20T23:53:42.447Z,4.80
2023-02-20T23:56:27.908Z,4.27
2023-02-20T23:59:14.614Z,3.27
